Main page
METAR-TAF:

METAR-TAF

Airports :

Norwich Airport

Norwich, England

latitude: 52-38N, longitude: 001-18E, elevation: 14 m

Current weather observation

The report was made 36 minutes ago, at 22:50 UTC
Wind 6 kt from the East
Temperature 13°C
Humidity 72%
Pressure 1003 hPa
Visibility 10 km or more

METAR: EGSH 222250Z AUTO 08006KT 9999 NCD 13/08 Q1003

Time: 00:26 (23:26 UTC)

Forecast

The report was made 3 hours and 24 minutes ago, at 20:02 UTC
Forecast valid from 22 at 21 UTC to 23 at 06 UTC
Wind 9 kt from the East
Visibility: 9000 m
Temporary
from 22 at 21 UTC to 23 at 06 UTC
Visibility 10 km or more
no clouds below 1500 m and no cumulonimbus

TAF: EGSH 222002Z 2221/2306 10009KT 9000 NSC TEMPO 2221/2306 CAVOK

Weather observations and forecasts of more than 4000 airports (METAR and TAF reports).

The available stations are represented by yellow and red dots on the map.

Hover mouse over dot to see the name of the station.

Then click to see weather observations and forecasts.

To change the map : click on the green buttons with a black cross to zoom in, on the green button with a dash to zoom out, or on the green arrows for adjacent maps.


METAR-TAF: